createdAt,value
2018-09-11T00:01:54.272Z,7.13
2018-09-11T00:04:23.064Z,7.43
2018-09-11T00:06:52.093Z,6.20
2018-09-11T00:09:20.765Z,6.83
2018-09-11T00:11:49.425Z,6.93
2018-09-11T00:14:18.211Z,6.93
2018-09-11T00:16:47.037Z,7.10
2018-09-11T00:19:15.746Z,7.00
2018-09-11T00:21:44.406Z,7.00
2018-09-11T00:24:13.135Z,6.63
2018-09-11T00:26:41.878Z,6.90
2018-09-11T00:29:10.582Z,7.00
2018-09-11T00:31:39.248Z,7.37
2018-09-11T00:34:08.052Z,6.70
2018-09-11T00:36:36.743Z,6.57
2018-09-11T00:39:06.228Z,7.43
2018-09-11T00:41:34.856Z,7.10
2018-09-11T00:44:03.625Z,6.77
2018-09-11T00:46:32.324Z,6.53
2018-09-11T00:49:00.990Z,7.60
2018-09-11T00:51:29.810Z,7.60
2018-09-11T00:53:58.455Z,7.50
2018-09-11T00:56:27.099Z,7.17
2018-09-11T00:58:55.746Z,7.07
2018-09-11T01:01:24.380Z,8.03
2018-09-11T01:03:53.066Z,7.57
2018-09-11T01:06:21.752Z,7.60
2018-09-11T01:08:50.466Z,7.33
2018-09-11T01:11:19.123Z,6.90
2018-09-11T01:13:47.762Z,6.97
2018-09-11T01:16:16.414Z,7.00
2018-09-11T01:18:45.063Z,6.93
2018-09-11T01:21:13.717Z,7.10
2018-09-11T01:23:42.350Z,7.03
2018-09-11T01:26:11.015Z,7.50
2018-09-11T01:28:39.659Z,8.40
2018-09-11T01:31:08.302Z,8.47
2018-09-11T01:33:37.007Z,8.50
2018-09-11T01:36:05.798Z,8.70
2018-09-11T01:38:34.547Z,9.00
2018-09-11T01:41:03.250Z,8.27
2018-09-11T01:43:31.914Z,8.10
2018-09-11T01:46:00.562Z,9.17
2018-09-11T01:48:29.167Z,9.10
2018-09-11T01:50:57.867Z,8.50
2018-09-11T01:53:26.517Z,8.33
2018-09-11T01:55:55.202Z,7.80
2018-09-11T01:58:23.827Z,8.53
2018-09-11T02:00:52.647Z,7.83
2018-09-11T02:03:21.271Z,8.70
2018-09-11T02:05:49.960Z,9.27
2018-09-11T02:08:18.587Z,8.97
2018-09-11T02:10:47.241Z,8.80
2018-09-11T02:13:15.917Z,8.87
2018-09-11T02:15:44.597Z,8.37
2018-09-11T02:18:13.242Z,8.80
2018-09-11T02:20:41.935Z,9.13
2018-09-11T02:23:10.614Z,8.87
2018-09-11T02:25:39.399Z,8.20
2018-09-11T02:28:08.074Z,9.00
2018-09-11T02:30:36.722Z,9.50
2018-09-11T02:33:05.490Z,10.93
2018-09-11T02:35:34.183Z,11.63
2018-09-11T02:38:02.794Z,11.17
2018-09-11T02:40:31.454Z,9.27
2018-09-11T02:43:00.084Z,8.20
2018-09-11T02:45:28.747Z,8.07
2018-09-11T02:47:57.477Z,8.57
2018-09-11T02:50:26.108Z,8.07
2018-09-11T02:52:54.851Z,8.60
2018-09-11T02:55:23.518Z,7.30
2018-09-11T02:57:52.234Z,7.20
2018-09-11T03:00:20.876Z,7.73
2018-09-11T03:02:49.555Z,7.70
2018-09-11T03:05:18.285Z,7.40
2018-09-11T03:07:46.937Z,7.20
2018-09-11T03:10:15.620Z,6.87
2018-09-11T03:12:44.278Z,8.00
2018-09-11T03:15:12.952Z,7.53
2018-09-11T03:17:41.617Z,7.07
2018-09-11T03:20:10.351Z,6.97
2018-09-11T03:22:38.991Z,7.37
2018-09-11T03:25:07.839Z,7.90
2018-09-11T03:27:36.447Z,7.00
2018-09-11T03:30:07.559Z,7.47
2018-09-11T03:32:36.230Z,7.40
2018-09-11T03:35:05.066Z,6.80
2018-09-11T03:37:33.741Z,7.27
2018-09-11T03:40:03.715Z,6.70
2018-09-11T03:42:32.362Z,7.70
2018-09-11T03:45:01.052Z,7.47
2018-09-11T03:47:29.860Z,6.70
2018-09-11T03:49:58.507Z,7.33
2018-09-11T03:52:27.324Z,7.87
2018-09-11T03:54:55.976Z,7.63
2018-09-11T03:57:24.619Z,7.63
2018-09-11T03:59:53.263Z,8.00
2018-09-11T04:02:21.940Z,7.60
2018-09-11T04:04:50.642Z,7.40
2018-09-11T04:07:19.376Z,7.20
2018-09-11T04:09:48.572Z,7.80
2018-09-11T04:12:17.589Z,7.50
2018-09-11T04:14:46.275Z,7.10
2018-09-11T04:17:15.007Z,9.10
2018-09-11T04:19:43.704Z,7.50
2018-09-11T04:22:12.403Z,7.50
2018-09-11T04:24:41.146Z,7.60
2018-09-11T04:27:09.867Z,7.13
2018-09-11T04:29:38.517Z,7.23
2018-09-11T04:32:07.203Z,7.30
2018-09-11T04:34:35.823Z,8.23
2018-09-11T04:37:04.477Z,7.50
2018-09-11T04:39:33.101Z,8.63
2018-09-11T04:42:01.815Z,8.43
2018-09-11T04:44:30.513Z,7.63
2018-09-11T04:46:59.148Z,8.27
2018-09-11T04:49:27.831Z,8.20
2018-09-11T04:51:56.498Z,8.67
2018-09-11T04:54:25.188Z,8.00
2018-09-11T04:56:54.007Z,9.87
2018-09-11T04:59:22.663Z,9.77
2018-09-11T05:01:51.370Z,9.17
2018-09-11T05:04:20.063Z,10.00
2018-09-11T05:06:48.739Z,9.17
2018-09-11T05:09:17.467Z,10.40
2018-09-11T05:11:46.223Z,10.30
2018-09-11T05:14:14.892Z,10.27
2018-09-11T05:16:43.542Z,10.57
2018-09-11T05:19:12.326Z,10.53
2018-09-11T05:21:40.923Z,10.97
2018-09-11T05:24:09.590Z,10.23
2018-09-11T05:26:38.293Z,11.90
2018-09-11T05:29:07.304Z,10.37
2018-09-11T05:31:35.934Z,11.20
2018-09-11T05:34:05.319Z,11.03
2018-09-11T05:36:34.047Z,10.90
2018-09-11T05:39:02.794Z,11.83
2018-09-11T05:41:31.433Z,12.10
2018-09-11T05:44:00.123Z,11.20
2018-09-11T05:46:28.811Z,12.07
2018-09-11T05:48:57.485Z,11.90
2018-09-11T05:51:26.238Z,11.57
2018-09-11T05:53:55.332Z,12.50
2018-09-11T05:56:23.997Z,10.83
2018-09-11T05:58:52.701Z,12.23
2018-09-11T06:01:22.044Z,11.80
2018-09-11T06:03:50.646Z,12.10
2018-09-11T06:06:19.302Z,12.23
2018-09-11T06:08:48.096Z,12.60
2018-09-11T06:11:16.803Z,15.50
2018-09-11T06:13:45.566Z,14.17
2018-09-11T06:16:14.385Z,13.27
2018-09-11T06:18:43.067Z,12.70
2018-09-11T06:21:11.791Z,12.10
2018-09-11T06:23:40.587Z,17.80
2018-09-11T06:26:09.268Z,14.33
2018-09-11T06:28:37.917Z,12.53
2018-09-11T06:31:07.062Z,11.80
2018-09-11T06:33:35.748Z,10.63
2018-09-11T06:36:04.470Z,10.87
2018-09-11T06:38:33.168Z,8.47
2018-09-11T06:41:01.880Z,9.57
2018-09-11T06:43:30.524Z,9.30
2018-09-11T06:45:59.298Z,8.20
2018-09-11T06:48:27.975Z,9.10
2018-09-11T06:50:56.729Z,9.53
2018-09-11T06:53:25.506Z,8.40
2018-09-11T06:55:54.200Z,8.50
2018-09-11T06:58:22.822Z,8.37
2018-09-11T07:00:51.487Z,8.10
2018-09-11T07:03:20.135Z,7.93
2018-09-11T07:05:48.753Z,7.60
2018-09-11T07:08:17.566Z,7.47
2018-09-11T07:10:46.319Z,8.17
2018-09-11T07:13:15.082Z,7.43
2018-09-11T07:15:43.755Z,7.80
2018-09-11T07:18:12.430Z,6.60
2018-09-11T07:20:41.075Z,7.73
2018-09-11T07:23:09.850Z,6.90
2018-09-11T07:25:38.525Z,8.57
2018-09-11T07:28:07.198Z,6.83
2018-09-11T07:30:35.875Z,7.00
2018-09-11T07:33:04.611Z,6.80
2018-09-11T07:35:33.249Z,6.57
2018-09-11T07:38:01.911Z,7.27
2018-09-11T07:40:30.628Z,6.57
2018-09-11T07:42:59.298Z,6.00
2018-09-11T07:45:28.125Z,6.23
2018-09-11T07:47:56.775Z,6.20
2018-09-11T07:50:25.472Z,6.63
2018-09-11T07:52:54.293Z,6.23
2018-09-11T07:55:22.975Z,6.10
2018-09-11T07:57:51.581Z,6.10
2018-09-11T08:00:20.300Z,6.27
2018-09-11T08:02:48.934Z,6.60
2018-09-11T08:05:17.641Z,6.00
2018-09-11T08:07:46.236Z,7.10
2018-09-11T08:10:14.883Z,6.63
2018-09-11T08:12:43.496Z,6.50
2018-09-11T08:15:12.189Z,5.73
2018-09-11T08:18:08.200Z,5.70
2018-09-11T08:20:36.951Z,6.97
2018-09-11T08:23:05.665Z,5.80
2018-09-11T08:25:34.423Z,5.77
2018-09-11T08:28:03.118Z,6.00
2018-09-11T08:30:32.625Z,5.40
2018-09-11T08:33:02.334Z,5.87
2018-09-11T08:35:31.091Z,5.90
2018-09-11T08:38:00.389Z,6.03
2018-09-11T08:40:29.104Z,5.47
2018-09-11T08:42:57.785Z,5.87
2018-09-11T08:45:26.479Z,6.07
2018-09-11T08:47:55.169Z,5.90
2018-09-11T08:50:23.927Z,5.73
2018-09-11T08:52:52.753Z,5.10
2018-09-11T08:55:21.371Z,5.93
2018-09-11T08:57:50.035Z,6.57
2018-09-11T09:00:18.800Z,5.87
2018-09-11T09:02:47.463Z,6.30
2018-09-11T09:05:16.108Z,6.37
2018-09-11T09:07:44.770Z,5.67
2018-09-11T09:10:13.501Z,5.87
2018-09-11T09:12:42.081Z,5.60
2018-09-11T09:15:10.829Z,5.93
2018-09-11T09:17:39.477Z,5.97
2018-09-11T09:20:08.208Z,6.03
2018-09-11T09:22:36.870Z,6.00
2018-09-11T09:25:06.135Z,5.87
2018-09-11T09:27:34.817Z,6.17
2018-09-11T09:30:05.380Z,5.90
2018-09-11T09:32:33.978Z,6.13
2018-09-11T09:35:02.635Z,6.10
2018-09-11T09:37:31.268Z,6.20
2018-09-11T09:39:59.931Z,6.20
2018-09-11T09:42:28.542Z,5.30
2018-09-11T09:44:57.238Z,5.87
2018-09-11T09:47:25.866Z,6.10
2018-09-11T09:49:54.489Z,5.80
2018-09-11T09:52:24.124Z,5.87
2018-09-11T09:54:52.746Z,6.30
2018-09-11T09:57:21.351Z,6.10
2018-09-11T09:59:49.966Z,5.47
2018-09-11T10:02:23.172Z,12.30
2018-09-11T10:04:52.605Z,5.50
2018-09-11T10:07:22.031Z,5.57
2018-09-11T10:09:50.924Z,5.33
2018-09-11T10:12:19.610Z,6.10
2018-09-11T10:14:48.340Z,5.83
2018-09-11T10:17:16.988Z,5.80
2018-09-11T10:19:45.692Z,6.10
2018-09-11T10:22:14.331Z,6.10
2018-09-11T10:24:42.974Z,6.20
2018-09-11T10:27:12.240Z,6.13
2018-09-11T10:29:40.837Z,6.23
2018-09-11T10:32:09.492Z,5.33
2018-09-11T10:34:38.096Z,5.43
2018-09-11T10:37:07.317Z,5.60
2018-09-11T10:39:35.933Z,6.40
2018-09-11T10:42:04.579Z,5.70
2018-09-11T10:44:33.223Z,5.40
2018-09-11T10:47:01.943Z,6.17
2018-09-11T10:49:30.838Z,6.50
2018-09-11T10:51:59.638Z,6.23
2018-09-11T10:54:28.136Z,5.57
2018-09-11T10:56:56.985Z,6.23
2018-09-11T10:59:25.658Z,5.67
2018-09-11T11:01:54.296Z,6.00
2018-09-11T11:04:23.007Z,5.67
2018-09-11T11:06:51.636Z,6.77
2018-09-11T11:09:20.238Z,8.20
2018-09-11T11:11:48.871Z,6.27
2018-09-11T11:14:17.478Z,5.83
2018-09-11T11:16:46.087Z,6.60
2018-09-11T11:19:14.719Z,6.17
2018-09-11T11:21:43.367Z,5.43
2018-09-11T11:24:12.284Z,6.00
2018-09-11T11:26:40.937Z,5.53
2018-09-11T11:29:09.540Z,5.73
2018-09-11T11:31:38.177Z,5.73
2018-09-11T11:34:07.317Z,6.17
2018-09-11T11:36:36.037Z,6.10
2018-09-11T11:39:06.251Z,5.50
2018-09-11T11:41:34.852Z,6.37
2018-09-11T11:44:03.588Z,5.60
2018-09-11T11:46:32.190Z,5.03
2018-09-11T11:49:00.898Z,5.13
2018-09-11T11:51:29.558Z,4.70
2018-09-11T11:53:58.478Z,4.07
2018-09-11T11:56:27.113Z,3.93
2018-09-11T11:58:55.826Z,4.10
2018-09-11T12:01:24.507Z,3.30
2018-09-11T12:03:53.090Z,4.03
2018-09-11T12:06:21.776Z,4.67
2018-09-11T12:08:50.350Z,3.98
2018-09-11T12:11:19.075Z,4.25
2018-09-11T12:13:47.780Z,3.75
2018-09-11T12:16:16.494Z,3.87
2018-09-11T12:18:45.252Z,4.20
2018-09-11T12:21:13.913Z,6.58
2018-09-11T12:23:42.598Z,4.53
2018-09-11T12:26:11.225Z,12.15
2018-09-11T12:28:39.886Z,5.08
2018-09-11T12:31:08.580Z,3.80
2018-09-11T12:33:37.323Z,4.62
2018-09-11T12:36:06.554Z,4.62
2018-09-11T12:38:35.162Z,4.87
2018-09-11T12:41:03.825Z,4.90
2018-09-11T12:43:32.540Z,4.42
2018-09-11T12:46:01.505Z,4.03
2018-09-11T12:48:30.108Z,4.10
2018-09-11T12:50:58.753Z,4.22
2018-09-11T12:53:27.413Z,3.90
2018-09-11T12:55:56.084Z,3.87
2018-09-11T12:58:24.874Z,4.28
2018-09-11T13:00:53.567Z,4.40
2018-09-11T13:03:22.168Z,4.08
2018-09-11T13:05:50.814Z,4.67
2018-09-11T13:08:19.474Z,4.73
2018-09-11T13:10:48.186Z,4.65
2018-09-11T13:13:16.866Z,4.45
2018-09-11T13:15:45.500Z,4.70
2018-09-11T13:18:14.222Z,4.67
2018-09-11T13:20:42.873Z,4.97
2018-09-11T13:23:11.515Z,5.07
2018-09-11T13:25:40.154Z,5.03
2018-09-11T13:28:08.786Z,4.50
2018-09-11T13:30:37.458Z,4.37
2018-09-11T13:33:06.652Z,4.45
2018-09-11T13:35:35.381Z,4.80
2018-09-11T13:38:04.005Z,4.42
2018-09-11T13:40:32.807Z,4.43
2018-09-11T13:43:01.421Z,3.93
2018-09-11T13:45:30.111Z,5.23
2018-09-11T13:47:58.801Z,4.20
2018-09-11T13:50:27.386Z,4.15
2018-09-11T13:52:56.094Z,3.70
2018-09-11T13:55:24.668Z,4.37
2018-09-11T13:57:53.342Z,4.22
2018-09-11T14:00:21.967Z,3.65
2018-09-11T14:02:50.582Z,3.50
2018-09-11T14:05:19.231Z,4.00
2018-09-11T14:07:47.841Z,4.00
2018-09-11T14:10:16.618Z,4.50
2018-09-11T14:12:45.299Z,4.03
2018-09-11T14:15:13.882Z,4.30
2018-09-11T14:17:42.573Z,3.87
2018-09-11T14:20:11.226Z,3.70
2018-09-11T14:22:39.815Z,4.00
2018-09-11T14:25:08.560Z,4.80
2018-09-11T14:27:37.172Z,3.97
2018-09-11T14:30:07.290Z,4.07
2018-09-11T14:32:35.940Z,4.10
2018-09-11T14:35:04.611Z,5.33
2018-09-11T14:37:33.271Z,5.80
2018-09-11T14:40:01.891Z,6.10
2018-09-11T14:42:30.516Z,5.40
2018-09-11T14:44:59.169Z,5.93
2018-09-11T14:47:33.135Z,6.07
2018-09-11T14:50:01.748Z,5.53
2018-09-11T14:52:30.432Z,5.63
2018-09-11T14:54:59.124Z,5.10
2018-09-11T14:57:27.828Z,5.50
2018-09-11T14:59:56.414Z,5.67
2018-09-11T15:02:25.048Z,6.00
2018-09-11T15:04:53.758Z,5.47
2018-09-11T15:07:22.395Z,6.10
2018-09-11T15:09:51.079Z,5.90
2018-09-11T15:12:19.868Z,6.03
2018-09-11T15:14:48.597Z,6.07
2018-09-11T15:17:18.043Z,5.87
2018-09-11T15:19:46.698Z,6.03
2018-09-11T15:22:15.500Z,6.13
2018-09-11T15:24:44.106Z,6.23
2018-09-11T15:27:12.753Z,6.47
2018-09-11T15:29:41.441Z,6.63
2018-09-11T15:32:10.080Z,6.63
2018-09-11T15:34:38.785Z,6.13
2018-09-11T15:37:07.449Z,6.10
2018-09-11T15:39:36.073Z,6.60
2018-09-11T15:42:04.747Z,6.20
2018-09-11T15:44:33.395Z,5.47
2018-09-11T15:47:02.092Z,5.60
2018-09-11T15:49:30.741Z,6.30
2018-09-11T15:51:59.488Z,6.07
2018-09-11T15:54:28.293Z,5.33
2018-09-11T15:56:56.935Z,6.17
2018-09-11T15:59:25.607Z,6.97
2018-09-11T16:01:54.294Z,5.57
2018-09-11T16:04:22.985Z,6.00
2018-09-11T16:06:51.716Z,6.50
2018-09-11T16:09:20.425Z,6.00
2018-09-11T16:11:49.129Z,6.03
2018-09-11T16:14:18.190Z,6.10
2018-09-11T16:16:46.854Z,6.17
2018-09-11T16:19:16.022Z,6.30
2018-09-11T16:21:44.709Z,6.43
2018-09-11T16:24:13.306Z,6.17
2018-09-11T16:26:41.944Z,6.67
2018-09-11T16:29:10.566Z,6.47
2018-09-11T16:31:39.202Z,6.57
2018-09-11T16:34:07.917Z,6.67
2018-09-11T16:36:36.586Z,6.57
2018-09-11T16:39:07.904Z,6.67
2018-09-11T16:41:36.538Z,6.70
2018-09-11T16:44:05.183Z,7.00
2018-09-11T16:46:33.862Z,7.07
2018-09-11T16:49:02.487Z,6.60
2018-09-11T16:51:31.152Z,7.03
2018-09-11T16:53:59.815Z,7.60
2018-09-11T16:56:28.534Z,7.30
2018-09-11T16:58:57.199Z,6.90
2018-09-11T17:01:25.892Z,7.23
2018-09-11T17:03:54.599Z,6.43
2018-09-11T17:06:23.300Z,7.43
2018-09-11T17:08:52.054Z,6.87
2018-09-11T17:11:20.822Z,6.90
2018-09-11T17:13:49.463Z,6.63
2018-09-11T17:16:18.256Z,7.40
2018-09-11T17:18:46.944Z,7.40
2018-09-11T17:21:15.606Z,7.73
2018-09-11T17:23:44.380Z,7.33
2018-09-11T17:26:13.039Z,7.33
2018-09-11T17:28:41.738Z,7.57
2018-09-11T17:31:10.478Z,7.10
2018-09-11T17:33:39.173Z,7.03
2018-09-11T17:36:07.897Z,6.57
2018-09-11T17:41:18.744Z,6.53
2018-09-11T17:43:47.427Z,6.33
2018-09-11T17:46:16.149Z,7.07
2018-09-11T17:48:44.989Z,6.60
2018-09-11T17:51:13.618Z,6.57
2018-09-11T17:53:42.334Z,7.37
2018-09-11T17:56:10.990Z,6.70
2018-09-11T17:58:39.684Z,6.57
2018-09-11T18:01:08.432Z,7.17
2018-09-11T18:03:37.175Z,6.90
2018-09-11T18:06:05.805Z,6.30
2018-09-11T18:08:34.489Z,5.90
2018-09-11T18:11:03.185Z,5.87
2018-09-11T18:13:31.917Z,5.33
2018-09-11T18:16:00.560Z,5.30
2018-09-11T18:18:29.216Z,5.80
2018-09-11T18:20:57.920Z,5.77
2018-09-11T18:23:26.666Z,6.60
2018-09-11T18:25:55.357Z,6.13
2018-09-11T18:28:23.959Z,6.47
2018-09-11T18:30:52.638Z,5.83
2018-09-11T18:33:21.292Z,5.97
2018-09-11T18:35:49.991Z,5.50
2018-09-11T18:38:18.641Z,5.43
2018-09-11T18:40:47.357Z,5.90
2018-09-11T18:43:16.039Z,5.50
2018-09-11T18:45:44.780Z,5.60
2018-09-11T18:48:13.466Z,5.20
2018-09-11T18:50:42.158Z,5.50
2018-09-11T18:53:10.866Z,5.57
2018-09-11T18:55:39.710Z,5.33
2018-09-11T18:58:08.586Z,5.47
2018-09-11T19:00:37.279Z,5.63
2018-09-11T19:03:06.145Z,5.50
2018-09-11T19:05:34.797Z,5.70
2018-09-11T19:08:03.868Z,5.93
2018-09-11T19:10:32.572Z,5.40
2018-09-11T19:13:01.247Z,5.60
2018-09-11T19:15:29.946Z,5.40
2018-09-11T19:17:58.659Z,5.23
2018-09-11T19:20:27.701Z,5.10
2018-09-11T19:22:56.818Z,5.10
2018-09-11T19:25:25.796Z,5.03
2018-09-11T19:27:54.507Z,5.77
2018-09-11T19:30:23.539Z,5.97
2018-09-11T19:32:52.328Z,18.50
2018-09-11T19:35:20.990Z,6.67
2018-09-11T19:37:49.792Z,6.60
2018-09-11T19:40:18.549Z,6.60
2018-09-11T19:42:47.151Z,6.17
2018-09-11T19:45:15.899Z,5.70
2018-09-11T19:47:44.560Z,5.90
2018-09-11T19:50:13.284Z,5.47
2018-09-11T19:52:42.051Z,5.67
2018-09-11T19:55:10.885Z,5.80
2018-09-11T19:57:39.694Z,6.10
2018-09-11T20:00:11.163Z,6.10
2018-09-11T20:02:39.813Z,6.13
2018-09-11T20:05:08.520Z,6.17
2018-09-11T20:07:37.156Z,6.00
2018-09-11T20:10:05.885Z,5.87
2018-09-11T20:12:34.562Z,5.70
2018-09-11T20:15:03.309Z,5.93
2018-09-11T20:17:32.042Z,6.07
2018-09-11T20:20:00.828Z,5.80
2018-09-11T20:22:29.516Z,5.57
2018-09-11T20:24:58.231Z,5.90
2018-09-11T20:27:26.941Z,5.53
2018-09-11T20:29:55.624Z,5.70
2018-09-11T20:32:24.977Z,5.27
2018-09-11T20:34:53.739Z,5.80
2018-09-11T20:37:22.505Z,6.03
2018-09-11T20:39:51.204Z,6.20
2018-09-11T20:42:19.832Z,5.33
2018-09-11T20:44:48.536Z,6.10
2018-09-11T20:47:17.212Z,5.50
2018-09-11T20:49:46.004Z,5.93
2018-09-11T20:52:14.870Z,5.40
2018-09-11T20:54:43.677Z,5.43
2018-09-11T20:57:12.480Z,5.73
2018-09-11T20:59:41.674Z,6.10
2018-09-11T21:02:10.351Z,5.37
2018-09-11T21:04:39.103Z,5.63
2018-09-11T21:07:07.801Z,6.33
2018-09-11T21:09:36.430Z,5.70
2018-09-11T21:12:05.266Z,6.60
2018-09-11T21:14:33.963Z,5.67
2018-09-11T21:17:02.622Z,5.80
2018-09-11T21:19:31.242Z,6.00
2018-09-11T21:21:59.890Z,6.27
2018-09-11T21:24:28.538Z,5.80
2018-09-11T21:26:57.245Z,5.97
2018-09-11T21:29:25.943Z,6.57
2018-09-11T21:31:54.629Z,5.97
2018-09-11T21:34:23.392Z,5.80
2018-09-11T21:36:52.225Z,5.70
2018-09-11T21:39:20.879Z,6.13
2018-09-11T21:41:49.574Z,6.00
2018-09-11T21:44:18.980Z,6.00
2018-09-11T21:46:47.616Z,5.50
2018-09-11T21:49:16.288Z,6.63
2018-09-11T21:51:45.023Z,6.50
2018-09-11T21:54:13.639Z,5.67
2018-09-11T21:56:42.262Z,6.27
2018-09-11T21:59:11.356Z,5.87
2018-09-11T22:01:45.252Z,6.40
2018-09-11T22:04:13.938Z,6.90
2018-09-11T22:06:42.621Z,6.30
2018-09-11T22:09:12.077Z,6.33
2018-09-11T22:11:41.411Z,6.40
2018-09-11T22:14:10.613Z,6.50
2018-09-11T22:16:40.218Z,6.73
2018-09-11T22:19:08.969Z,6.17
2018-09-11T22:21:38.166Z,6.63
2018-09-11T22:24:06.863Z,6.53
2018-09-11T22:26:35.691Z,6.10
2018-09-11T22:29:04.426Z,6.00
2018-09-11T22:31:33.104Z,6.83
2018-09-11T22:34:02.035Z,6.07
2018-09-11T22:36:30.767Z,6.33
2018-09-11T22:38:59.443Z,6.53
2018-09-11T22:41:28.091Z,6.10
2018-09-11T22:43:56.760Z,5.90
2018-09-11T22:46:25.860Z,5.80
2018-09-11T22:48:54.527Z,6.00
2018-09-11T22:51:23.154Z,6.17
2018-09-11T22:53:51.782Z,6.30
2018-09-11T22:56:20.427Z,6.33
2018-09-11T22:58:49.034Z,6.00
2018-09-11T23:01:17.671Z,6.43
2018-09-11T23:03:46.326Z,6.17
2018-09-11T23:06:15.038Z,6.23
2018-09-11T23:08:43.708Z,6.40
2018-09-11T23:11:12.364Z,5.73
2018-09-11T23:13:41.011Z,5.80
2018-09-11T23:16:09.763Z,6.30
2018-09-11T23:18:38.424Z,6.43
2018-09-11T23:21:07.243Z,6.80
2018-09-11T23:23:35.890Z,6.53
2018-09-11T23:26:04.591Z,6.40
2018-09-11T23:28:33.222Z,6.33
2018-09-11T23:31:01.955Z,6.20
2018-09-11T23:33:30.587Z,6.17
2018-09-11T23:35:59.206Z,6.13
2018-09-11T23:38:27.861Z,5.70
2018-09-11T23:40:56.502Z,6.27
2018-09-11T23:43:25.249Z,5.60
2018-09-11T23:45:54.094Z,6.00
2018-09-11T23:48:22.773Z,5.47
2018-09-11T23:50:51.378Z,5.67
2018-09-11T23:53:19.992Z,5.97
2018-09-11T23:55:48.694Z,5.63
2018-09-11T23:58:17.358Z,5.90
